sensor_id;sensor_type;location;lat;lon;timestamp;temperature;humidity
11087;DHT22;5597;47.588;9.642;2023-02-07T00:00:13;-1.70;99.90
11087;DHT22;5597;47.588;9.642;2023-02-07T00:02:46;-1.70;99.90
11087;DHT22;5597;47.588;9.642;2023-02-07T00:05:12;-1.80;99.90
11087;DHT22;5597;47.588;9.642;2023-02-07T00:07:38;-1.80;99.90
11087;DHT22;5597;47.588;9.642;2023-02-07T00:10:05;-1.80;99.90
11087;DHT22;5597;47.588;9.642;2023-02-07T00:12:31;-1.90;99.90
11087;DHT22;5597;47.588;9.642;2023-02-07T00:14:57;-1.90;99.90
11087;DHT22;5597;47.588;9.642;2023-02-07T00:17:24;-1.90;99.90
11087;DHT22;5597;47.588;9.642;2023-02-07T00:19:49;-1.90;99.90
11087;DHT22;5597;47.588;9.642;2023-02-07T00:22:15;-1.90;99.90
11087;DHT22;5597;47.588;9.642;2023-02-07T00:24:41;-2.00;99.90
11087;DHT22;5597;47.588;9.642;2023-02-07T00:27:06;-1.90;99.90
11087;DHT22;5597;47.588;9.642;2023-02-07T00:29:32;-1.90;99.90
11087;DHT22;5597;47.588;9.642;2023-02-07T00:31:58;-1.90;99.90
11087;DHT22;5597;47.588;9.642;2023-02-07T00:34:23;-2.00;99.90
11087;DHT22;5597;47.588;9.642;2023-02-07T00:36:49;-1.90;99.90
11087;DHT22;5597;47.588;9.642;2023-02-07T00:39:16;-2.00;99.90
11087;DHT22;5597;47.588;9.642;2023-02-07T00:41:43;-2.00;99.90
11087;DHT22;5597;47.588;9.642;2023-02-07T00:44:08;-2.00;99.90
11087;DHT22;5597;47.588;9.642;2023-02-07T00:46:34;-2.00;99.90
11087;DHT22;5597;47.588;9.642;2023-02-07T00:49:00;-2.00;99.90
11087;DHT22;5597;47.588;9.642;2023-02-07T00:51:26;-2.00;99.90
11087;DHT22;5597;47.588;9.642;2023-02-07T00:53:53;-1.90;99.90
11087;DHT22;5597;47.588;9.642;2023-02-07T00:56:20;-1.90;99.90
11087;DHT22;5597;47.588;9.642;2023-02-07T00:58:46;-2.00;99.90
11087;DHT22;5597;47.588;9.642;2023-02-07T01:01:13;-2.00;99.90
11087;DHT22;5597;47.588;9.642;2023-02-07T01:03:38;-2.00;99.90
11087;DHT22;5597;47.588;9.642;2023-02-07T01:06:05;-2.00;99.90
11087;DHT22;5597;47.588;9.642;2023-02-07T01:08:31;-2.00;99.90
11087;DHT22;5597;47.588;9.642;2023-02-07T01:11:05;-2.00;99.90
11087;DHT22;5597;47.588;9.642;2023-02-07T01:13:32;-2.10;99.90
11087;DHT22;5597;47.588;9.642;2023-02-07T01:15:57;-2.10;99.90
11087;DHT22;5597;47.588;9.642;2023-02-07T01:18:23;-2.10;99.90
11087;DHT22;5597;47.588;9.642;2023-02-07T01:20:49;-2.10;99.90
11087;DHT22;5597;47.588;9.642;2023-02-07T01:23:14;-2.10;99.90
11087;DHT22;5597;47.588;9.642;2023-02-07T01:25:41;-2.10;99.90
11087;DHT22;5597;47.588;9.642;2023-02-07T01:28:08;-2.20;99.90
11087;DHT22;5597;47.588;9.642;2023-02-07T01:30:34;-2.20;99.90
11087;DHT22;5597;47.588;9.642;2023-02-07T01:33:00;-2.30;99.90
11087;DHT22;5597;47.588;9.642;2023-02-07T01:35:26;-2.30;99.90
11087;DHT22;5597;47.588;9.642;2023-02-07T01:37:51;-2.30;99.90
11087;DHT22;5597;47.588;9.642;2023-02-07T01:40:17;-2.30;99.90
11087;DHT22;5597;47.588;9.642;2023-02-07T01:42:43;-2.30;99.90
11087;DHT22;5597;47.588;9.642;2023-02-07T01:45:21;-2.30;99.90
11087;DHT22;5597;47.588;9.642;2023-02-07T01:47:47;-2.30;99.90
11087;DHT22;5597;47.588;9.642;2023-02-07T01:50:13;-2.40;99.90
11087;DHT22;5597;47.588;9.642;2023-02-07T01:52:39;-2.40;99.90
11087;DHT22;5597;47.588;9.642;2023-02-07T01:55:14;-2.30;99.90
11087;DHT22;5597;47.588;9.642;2023-02-07T01:57:41;-2.40;99.90
11087;DHT22;5597;47.588;9.642;2023-02-07T02:00:07;-2.40;99.90
11087;DHT22;5597;47.588;9.642;2023-02-07T02:02:35;-2.50;99.90
11087;DHT22;5597;47.588;9.642;2023-02-07T02:05:02;-2.50;99.90
11087;DHT22;5597;47.588;9.642;2023-02-07T02:07:29;-2.40;99.90
11087;DHT22;5597;47.588;9.642;2023-02-07T02:09:58;-2.50;99.90
11087;DHT22;5597;47.588;9.642;2023-02-07T02:34:21;-2.50;99.90
11087;DHT22;5597;47.588;9.642;2023-02-07T02:37:02;-2.50;99.90
11087;DHT22;5597;47.588;9.642;2023-02-07T02:39:38;-2.50;99.90
11087;DHT22;5597;47.588;9.642;2023-02-07T02:42:18;-2.50;99.90
11087;DHT22;5597;47.588;9.642;2023-02-07T02:44:52;-2.50;99.90
11087;DHT22;5597;47.588;9.642;2023-02-07T02:47:21;-2.60;99.90
11087;DHT22;5597;47.588;9.642;2023-02-07T02:49:48;-2.60;99.90
11087;DHT22;5597;47.588;9.642;2023-02-07T02:52:14;-2.60;99.90
11087;DHT22;5597;47.588;9.642;2023-02-07T02:54:40;-2.60;99.90
11087;DHT22;5597;47.588;9.642;2023-02-07T02:57:20;-2.60;99.90
11087;DHT22;5597;47.588;9.642;2023-02-07T03:00:14;-2.60;99.90
11087;DHT22;5597;47.588;9.642;2023-02-07T03:03:09;-2.70;99.90
11087;DHT22;5597;47.588;9.642;2023-02-07T03:05:53;-2.70;99.90
11087;DHT22;5597;47.588;9.642;2023-02-07T03:08:45;-2.70;99.90
11087;DHT22;5597;47.588;9.642;2023-02-07T03:11:15;-2.70;99.90
11087;DHT22;5597;47.588;9.642;2023-02-07T03:16:37;-2.80;99.90
11087;DHT22;5597;47.588;9.642;2023-02-07T03:19:17;-2.80;99.90
11087;DHT22;5597;47.588;9.642;2023-02-07T03:21:48;-2.70;99.90
11087;DHT22;5597;47.588;9.642;2023-02-07T03:24:27;-2.70;99.90
11087;DHT22;5597;47.588;9.642;2023-02-07T03:26:57;-2.80;99.90
11087;DHT22;5597;47.588;9.642;2023-02-07T03:29:25;-2.70;99.90
11087;DHT22;5597;47.588;9.642;2023-02-07T03:31:55;-2.70;99.90
11087;DHT22;5597;47.588;9.642;2023-02-07T03:34:31;-2.70;99.90
11087;DHT22;5597;47.588;9.642;2023-02-07T03:37:41;-2.70;99.90
11087;DHT22;5597;47.588;9.642;2023-02-07T03:40:06;-2.70;99.90
11087;DHT22;5597;47.588;9.642;2023-02-07T03:42:41;-2.80;99.90
11087;DHT22;5597;47.588;9.642;2023-02-07T03:45:15;-2.80;99.90
11087;DHT22;5597;47.588;9.642;2023-02-07T03:47:42;-2.80;99.90
11087;DHT22;5597;47.588;9.642;2023-02-07T03:50:08;-2.80;99.90
11087;DHT22;5597;47.588;9.642;2023-02-07T03:52:34;-2.80;99.90
11087;DHT22;5597;47.588;9.642;2023-02-07T03:54:59;-2.80;99.90
11087;DHT22;5597;47.588;9.642;2023-02-07T03:57:25;-2.80;99.90
11087;DHT22;5597;47.588;9.642;2023-02-07T03:59:50;-2.80;99.90
11087;DHT22;5597;47.588;9.642;2023-02-07T04:02:16;-2.80;99.90
11087;DHT22;5597;47.588;9.642;2023-02-07T04:04:42;-2.80;99.90
11087;DHT22;5597;47.588;9.642;2023-02-07T04:07:09;-2.80;99.90
11087;DHT22;5597;47.588;9.642;2023-02-07T04:09:34;-2.80;99.90
11087;DHT22;5597;47.588;9.642;2023-02-07T04:12:00;-2.80;99.90
11087;DHT22;5597;47.588;9.642;2023-02-07T04:14:26;-2.90;99.90
11087;DHT22;5597;47.588;9.642;2023-02-07T04:16:51;-2.90;99.90
11087;DHT22;5597;47.588;9.642;2023-02-07T04:19:17;-2.90;99.90
11087;DHT22;5597;47.588;9.642;2023-02-07T04:21:42;-2.90;99.90
11087;DHT22;5597;47.588;9.642;2023-02-07T04:24:08;-2.90;99.90
11087;DHT22;5597;47.588;9.642;2023-02-07T04:26:34;-2.90;99.90
11087;DHT22;5597;47.588;9.642;2023-02-07T04:29:00;-2.90;99.90
11087;DHT22;5597;47.588;9.642;2023-02-07T04:31:25;-2.80;99.90
11087;DHT22;5597;47.588;9.642;2023-02-07T04:33:51;-2.90;99.90
11087;DHT22;5597;47.588;9.642;2023-02-07T04:36:16;-2.90;99.90
11087;DHT22;5597;47.588;9.642;2023-02-07T04:38:42;-2.90;99.90
11087;DHT22;5597;47.588;9.642;2023-02-07T04:41:08;-2.90;99.90
11087;DHT22;5597;47.588;9.642;2023-02-07T04:43:35;-2.90;99.90
11087;DHT22;5597;47.588;9.642;2023-02-07T04:46:02;-3.00;99.90
11087;DHT22;5597;47.588;9.642;2023-02-07T04:48:28;-3.00;99.90
11087;DHT22;5597;47.588;9.642;2023-02-07T04:50:54;-3.00;99.90
11087;DHT22;5597;47.588;9.642;2023-02-07T04:53:20;-3.00;99.90
11087;DHT22;5597;47.588;9.642;2023-02-07T04:55:50;-3.00;99.90
11087;DHT22;5597;47.588;9.642;2023-02-07T04:58:16;-3.00;99.90
11087;DHT22;5597;47.588;9.642;2023-02-07T05:00:42;-3.10;99.90
11087;DHT22;5597;47.588;9.642;2023-02-07T05:03:08;-3.10;99.90
11087;DHT22;5597;47.588;9.642;2023-02-07T05:05:37;-3.10;99.90
11087;DHT22;5597;47.588;9.642;2023-02-07T05:08:03;-3.10;99.90
11087;DHT22;5597;47.588;9.642;2023-02-07T05:10:28;-3.20;99.90
11087;DHT22;5597;47.588;9.642;2023-02-07T05:12:54;-3.10;99.90
11087;DHT22;5597;47.588;9.642;2023-02-07T05:15:20;-3.20;99.90
11087;DHT22;5597;47.588;9.642;2023-02-07T05:17:45;-3.20;99.90
11087;DHT22;5597;47.588;9.642;2023-02-07T05:20:11;-3.20;99.90
11087;DHT22;5597;47.588;9.642;2023-02-07T05:22:36;-3.20;99.90
11087;DHT22;5597;47.588;9.642;2023-02-07T05:25:02;-3.30;99.90
11087;DHT22;5597;47.588;9.642;2023-02-07T05:27:28;-3.30;99.90
11087;DHT22;5597;47.588;9.642;2023-02-07T05:29:54;-3.30;99.90
11087;DHT22;5597;47.588;9.642;2023-02-07T05:32:19;-3.30;99.90
11087;DHT22;5597;47.588;9.642;2023-02-07T05:35:04;-3.30;99.90
11087;DHT22;5597;47.588;9.642;2023-02-07T05:37:29;-3.30;99.90
11087;DHT22;5597;47.588;9.642;2023-02-07T05:39:55;-3.30;99.90
11087;DHT22;5597;47.588;9.642;2023-02-07T05:42:21;-3.40;99.90
11087;DHT22;5597;47.588;9.642;2023-02-07T05:44:46;-3.40;99.90
11087;DHT22;5597;47.588;9.642;2023-02-07T05:47:12;-3.40;99.90
11087;DHT22;5597;47.588;9.642;2023-02-07T05:49:38;-3.40;99.90
11087;DHT22;5597;47.588;9.642;2023-02-07T05:52:04;-3.40;99.90
11087;DHT22;5597;47.588;9.642;2023-02-07T05:54:29;-3.40;99.90
11087;DHT22;5597;47.588;9.642;2023-02-07T05:56:55;-3.40;99.90
11087;DHT22;5597;47.588;9.642;2023-02-07T05:59:21;-3.50;99.90
11087;DHT22;5597;47.588;9.642;2023-02-07T06:01:46;-3.50;99.90
11087;DHT22;5597;47.588;9.642;2023-02-07T06:04:12;-3.50;99.90
11087;DHT22;5597;47.588;9.642;2023-02-07T06:06:37;-3.50;99.90
11087;DHT22;5597;47.588;9.642;2023-02-07T06:09:03;-3.50;99.90
11087;DHT22;5597;47.588;9.642;2023-02-07T06:11:29;-3.50;99.90
11087;DHT22;5597;47.588;9.642;2023-02-07T06:13:55;-3.50;99.90
11087;DHT22;5597;47.588;9.642;2023-02-07T06:16:20;-3.60;99.90
11087;DHT22;5597;47.588;9.642;2023-02-07T06:18:46;-3.60;99.90
11087;DHT22;5597;47.588;9.642;2023-02-07T06:21:11;-3.60;99.90
11087;DHT22;5597;47.588;9.642;2023-02-07T06:23:37;-3.60;99.90
11087;DHT22;5597;47.588;9.642;2023-02-07T06:26:02;-3.60;99.90
11087;DHT22;5597;47.588;9.642;2023-02-07T06:28:28;-3.60;99.90
11087;DHT22;5597;47.588;9.642;2023-02-07T06:30:53;-3.60;99.90
11087;DHT22;5597;47.588;9.642;2023-02-07T06:33:19;-3.60;99.90
11087;DHT22;5597;47.588;9.642;2023-02-07T06:35:45;-3.60;99.90
11087;DHT22;5597;47.588;9.642;2023-02-07T06:38:14;-3.70;99.90
11087;DHT22;5597;47.588;9.642;2023-02-07T06:40:41;-3.70;99.90
11087;DHT22;5597;47.588;9.642;2023-02-07T06:43:06;-3.70;99.90
11087;DHT22;5597;47.588;9.642;2023-02-07T06:45:32;-3.70;99.90
11087;DHT22;5597;47.588;9.642;2023-02-07T06:47:58;-3.70;99.90
11087;DHT22;5597;47.588;9.642;2023-02-07T06:50:23;-3.70;99.90
11087;DHT22;5597;47.588;9.642;2023-02-07T06:52:49;-3.80;99.90
11087;DHT22;5597;47.588;9.642;2023-02-07T06:55:14;-3.80;99.90
11087;DHT22;5597;47.588;9.642;2023-02-07T06:57:40;-3.80;99.90
11087;DHT22;5597;47.588;9.642;2023-02-07T07:00:06;-3.80;99.90
11087;DHT22;5597;47.588;9.642;2023-02-07T07:02:32;-3.80;99.90
11087;DHT22;5597;47.588;9.642;2023-02-07T07:04:58;-3.80;99.90
11087;DHT22;5597;47.588;9.642;2023-02-07T07:07:23;-3.80;99.90
11087;DHT22;5597;47.588;9.642;2023-02-07T07:09:49;-3.80;99.90
11087;DHT22;5597;47.588;9.642;2023-02-07T07:12:14;-3.80;99.90
11087;DHT22;5597;47.588;9.642;2023-02-07T07:14:40;-3.70;99.90
11087;DHT22;5597;47.588;9.642;2023-02-07T07:17:05;-3.70;99.90
11087;DHT22;5597;47.588;9.642;2023-02-07T07:19:31;-3.60;99.90
11087;DHT22;5597;47.588;9.642;2023-02-07T07:21:57;-3.60;99.90
11087;DHT22;5597;47.588;9.642;2023-02-07T07:24:23;-3.50;99.90
11087;DHT22;5597;47.588;9.642;2023-02-07T07:26:49;-3.40;99.90
11087;DHT22;5597;47.588;9.642;2023-02-07T07:29:18;-3.40;99.90
11087;DHT22;5597;47.588;9.642;2023-02-07T07:31:45;-3.30;99.90
11087;DHT22;5597;47.588;9.642;2023-02-07T07:34:11;-3.20;99.90
11087;DHT22;5597;47.588;9.642;2023-02-07T07:36:36;-3.10;99.90
11087;DHT22;5597;47.588;9.642;2023-02-07T07:39:03;-3.00;99.90
11087;DHT22;5597;47.588;9.642;2023-02-07T07:41:28;-2.80;99.90
11087;DHT22;5597;47.588;9.642;2023-02-07T07:43:54;-2.70;99.90
11087;DHT22;5597;47.588;9.642;2023-02-07T07:46:20;-2.50;99.90
11087;DHT22;5597;47.588;9.642;2023-02-07T07:48:46;-2.40;99.90
11087;DHT22;5597;47.588;9.642;2023-02-07T07:51:11;-2.20;99.90
11087;DHT22;5597;47.588;9.642;2023-02-07T07:53:37;-2.00;99.90
11087;DHT22;5597;47.588;9.642;2023-02-07T07:56:03;-1.90;99.90
11087;DHT22;5597;47.588;9.642;2023-02-07T07:58:28;-1.70;99.90
11087;DHT22;5597;47.588;9.642;2023-02-07T08:00:54;-1.60;99.90
11087;DHT22;5597;47.588;9.642;2023-02-07T08:03:20;-1.40;99.90
11087;DHT22;5597;47.588;9.642;2023-02-07T08:05:46;-1.30;99.90
11087;DHT22;5597;47.588;9.642;2023-02-07T08:08:13;-1.20;99.90
11087;DHT22;5597;47.588;9.642;2023-02-07T08:10:38;-1.10;99.90
11087;DHT22;5597;47.588;9.642;2023-02-07T08:13:04;-1.10;99.90
11087;DHT22;5597;47.588;9.642;2023-02-07T08:15:30;-1.00;99.90
11087;DHT22;5597;47.588;9.642;2023-02-07T08:17:56;-0.90;99.90
11087;DHT22;5597;47.588;9.642;2023-02-07T08:20:22;-0.90;99.90
11087;DHT22;5597;47.588;9.642;2023-02-07T08:22:48;-0.80;99.90
11087;DHT22;5597;47.588;9.642;2023-02-07T08:25:14;-0.70;99.90
11087;DHT22;5597;47.588;9.642;2023-02-07T08:27:39;-0.60;99.90
11087;DHT22;5597;47.588;9.642;2023-02-07T08:30:07;-0.50;99.90
11087;DHT22;5597;47.588;9.642;2023-02-07T08:32:33;-0.40;99.90
11087;DHT22;5597;47.588;9.642;2023-02-07T08:34:59;-0.40;99.90
11087;DHT22;5597;47.588;9.642;2023-02-07T08:37:24;-0.30;99.90
11087;DHT22;5597;47.588;9.642;2023-02-07T08:39:50;-0.30;99.90
11087;DHT22;5597;47.588;9.642;2023-02-07T08:42:21;-0.20;99.90
11087;DHT22;5597;47.588;9.642;2023-02-07T08:44:47;-0.10;99.90
11087;DHT22;5597;47.588;9.642;2023-02-07T08:47:14;0.10;99.90
11087;DHT22;5597;47.588;9.642;2023-02-07T08:49:40;0.20;99.90
11087;DHT22;5597;47.588;9.642;2023-02-07T08:52:06;0.30;99.90
11087;DHT22;5597;47.588;9.642;2023-02-07T08:54:32;0.40;99.90
11087;DHT22;5597;47.588;9.642;2023-02-07T08:56:57;0.50;99.90
11087;DHT22;5597;47.588;9.642;2023-02-07T08:59:23;0.60;99.90
11087;DHT22;5597;47.588;9.642;2023-02-07T09:01:49;0.70;99.90
11087;DHT22;5597;47.588;9.642;2023-02-07T09:04:14;0.70;99.90
11087;DHT22;5597;47.588;9.642;2023-02-07T09:06:40;0.80;99.90
11087;DHT22;5597;47.588;9.642;2023-02-07T09:09:06;1.00;99.90
11087;DHT22;5597;47.588;9.642;2023-02-07T09:11:32;1.10;99.90
11087;DHT22;5597;47.588;9.642;2023-02-07T09:13:58;1.30;99.90
11087;DHT22;5597;47.588;9.642;2023-02-07T09:16:23;1.50;99.90
11087;DHT22;5597;47.588;9.642;2023-02-07T09:18:50;1.60;99.90
11087;DHT22;5597;47.588;9.642;2023-02-07T09:21:16;1.80;99.90
11087;DHT22;5597;47.588;9.642;2023-02-07T09:23:42;1.90;99.90
11087;DHT22;5597;47.588;9.642;2023-02-07T09:26:10;2.00;99.90
11087;DHT22;5597;47.588;9.642;2023-02-07T09:28:39;2.00;99.90
11087;DHT22;5597;47.588;9.642;2023-02-07T09:31:09;2.10;99.90
11087;DHT22;5597;47.588;9.642;2023-02-07T09:33:35;2.20;99.90
11087;DHT22;5597;47.588;9.642;2023-02-07T09:36:02;2.40;99.90
11087;DHT22;5597;47.588;9.642;2023-02-07T09:38:28;2.50;99.90
11087;DHT22;5597;47.588;9.642;2023-02-07T09:40:54;2.50;99.90
11087;DHT22;5597;47.588;9.642;2023-02-07T09:43:44;2.60;99.90
11087;DHT22;5597;47.588;9.642;2023-02-07T09:46:22;2.70;99.90
11087;DHT22;5597;47.588;9.642;2023-02-07T09:48:54;2.80;99.90
11087;DHT22;5597;47.588;9.642;2023-02-07T09:51:23;3.00;99.90
11087;DHT22;5597;47.588;9.642;2023-02-07T09:53:56;3.10;99.90
11087;DHT22;5597;47.588;9.642;2023-02-07T09:56:25;3.20;99.90
11087;DHT22;5597;47.588;9.642;2023-02-07T09:59:23;3.30;99.90
11087;DHT22;5597;47.588;9.642;2023-02-07T10:01:56;3.50;99.90
11087;DHT22;5597;47.588;9.642;2023-02-07T10:04:35;3.70;99.90
11087;DHT22;5597;47.588;9.642;2023-02-07T10:07:04;3.90;99.90
11087;DHT22;5597;47.588;9.642;2023-02-07T10:09:37;4.10;99.90
11087;DHT22;5597;47.588;9.642;2023-02-07T10:15:27;4.40;99.90
11087;DHT22;5597;47.588;9.642;2023-02-07T10:18:27;4.40;99.90
11087;DHT22;5597;47.588;9.642;2023-02-07T10:26:36;4.50;99.90
11087;DHT22;5597;47.588;9.642;2023-02-07T10:31:37;4.50;99.90
11087;DHT22;5597;47.588;9.642;2023-02-07T10:34:13;4.50;99.90
11087;DHT22;5597;47.588;9.642;2023-02-07T10:36:42;4.40;99.90
11087;DHT22;5597;47.588;9.642;2023-02-07T10:39:30;4.50;99.90
11087;DHT22;5597;47.588;9.642;2023-02-07T10:41:57;4.40;99.90
11087;DHT22;5597;47.588;9.642;2023-02-07T10:44:24;4.40;99.90
11087;DHT22;5597;47.588;9.642;2023-02-07T10:47:00;4.30;99.90
11087;DHT22;5597;47.588;9.642;2023-02-07T10:49:33;4.30;99.90
11087;DHT22;5597;47.588;9.642;2023-02-07T10:52:05;4.30;99.90
11087;DHT22;5597;47.588;9.642;2023-02-07T10:55:07;4.30;99.90
11087;DHT22;5597;47.588;9.642;2023-02-07T10:57:34;4.50;99.90
11087;DHT22;5597;47.588;9.642;2023-02-07T11:00:26;4.50;99.90
11087;DHT22;5597;47.588;9.642;2023-02-07T11:03:00;4.50;99.90
11087;DHT22;5597;47.588;9.642;2023-02-07T11:05:30;4.50;99.90
11087;DHT22;5597;47.588;9.642;2023-02-07T11:10:48;4.70;99.90
11087;DHT22;5597;47.588;9.642;2023-02-07T11:13:19;4.80;99.90
11087;DHT22;5597;47.588;9.642;2023-02-07T11:16:04;4.80;99.90
11087;DHT22;5597;47.588;9.642;2023-02-07T11:18:59;4.80;99.90
11087;DHT22;5597;47.588;9.642;2023-02-07T11:24:03;4.70;99.90
11087;DHT22;5597;47.588;9.642;2023-02-07T11:26:30;4.80;99.90
11087;DHT22;5597;47.588;9.642;2023-02-07T11:29:16;4.80;99.90
11087;DHT22;5597;47.588;9.642;2023-02-07T11:31:44;4.90;99.90
11087;DHT22;5597;47.588;9.642;2023-02-07T11:34:26;5.00;99.90
11087;DHT22;5597;47.588;9.642;2023-02-07T11:36:53;5.10;99.90
11087;DHT22;5597;47.588;9.642;2023-02-07T11:39:21;5.30;99.90
11087;DHT22;5597;47.588;9.642;2023-02-07T11:41:58;5.40;99.90
11087;DHT22;5597;47.588;9.642;2023-02-07T11:44:25;5.40;99.90
11087;DHT22;5597;47.588;9.642;2023-02-07T11:46:53;5.50;99.90
11087;DHT22;5597;47.588;9.642;2023-02-07T11:49:43;5.60;99.90
11087;DHT22;5597;47.588;9.642;2023-02-07T11:52:10;5.70;99.90
11087;DHT22;5597;47.588;9.642;2023-02-07T11:54:38;5.70;99.90
11087;DHT22;5597;47.588;9.642;2023-02-07T11:57:10;5.70;99.90
11087;DHT22;5597;47.588;9.642;2023-02-07T11:59:49;5.80;99.90
11087;DHT22;5597;47.588;9.642;2023-02-07T12:02:25;5.80;99.90
11087;DHT22;5597;47.588;9.642;2023-02-07T12:04:52;5.80;99.90
11087;DHT22;5597;47.588;9.642;2023-02-07T12:07:26;5.90;99.90
11087;DHT22;5597;47.588;9.642;2023-02-07T12:09:59;5.90;99.90
11087;DHT22;5597;47.588;9.642;2023-02-07T12:15:08;6.00;99.90
11087;DHT22;5597;47.588;9.642;2023-02-07T12:20:34;6.10;99.90
11087;DHT22;5597;47.588;9.642;2023-02-07T12:25:40;6.20;99.90
11087;DHT22;5597;47.588;9.642;2023-02-07T12:28:25;6.30;99.90
11087;DHT22;5597;47.588;9.642;2023-02-07T12:30:54;6.30;99.90
11087;DHT22;5597;47.588;9.642;2023-02-07T12:36:18;6.50;99.90
11087;DHT22;5597;47.588;9.642;2023-02-07T12:38:59;6.40;99.90
11087;DHT22;5597;47.588;9.642;2023-02-07T12:47:00;6.40;99.90
11087;DHT22;5597;47.588;9.642;2023-02-07T12:52:29;6.40;99.90
11087;DHT22;5597;47.588;9.642;2023-02-07T12:57:55;6.40;99.90
11087;DHT22;5597;47.588;9.642;2023-02-07T13:03:20;6.40;99.90
11087;DHT22;5597;47.588;9.642;2023-02-07T13:05:57;6.40;99.90
11087;DHT22;5597;47.588;9.642;2023-02-07T13:19:23;6.50;99.90
11087;DHT22;5597;47.588;9.642;2023-02-07T13:21:57;6.50;99.90
11087;DHT22;5597;47.588;9.642;2023-02-07T13:24:26;6.50;99.90
11087;DHT22;5597;47.588;9.642;2023-02-07T13:27:16;6.50;99.90
11087;DHT22;5597;47.588;9.642;2023-02-07T13:29:45;6.50;99.90
11087;DHT22;5597;47.588;9.642;2023-02-07T13:32:25;6.60;99.90
11087;DHT22;5597;47.588;9.642;2023-02-07T13:35:06;6.60;99.90
11087;DHT22;5597;47.588;9.642;2023-02-07T13:38:01;6.50;99.90
11087;DHT22;5597;47.588;9.642;2023-02-07T13:45:52;6.40;99.90
11087;DHT22;5597;47.588;9.642;2023-02-07T13:48:25;6.40;99.90
11087;DHT22;5597;47.588;9.642;2023-02-07T13:51:03;6.40;99.90
11087;DHT22;5597;47.588;9.642;2023-02-07T13:54:00;6.50;99.90
11087;DHT22;5597;47.588;9.642;2023-02-07T13:56:30;6.60;99.90
11087;DHT22;5597;47.588;9.642;2023-02-07T13:59:36;6.70;99.90
11087;DHT22;5597;47.588;9.642;2023-02-07T14:02:17;6.80;99.90
11087;DHT22;5597;47.588;9.642;2023-02-07T14:04:56;6.80;99.90
11087;DHT22;5597;47.588;9.642;2023-02-07T14:07:27;6.70;99.90
11087;DHT22;5597;47.588;9.642;2023-02-07T14:09:54;6.70;99.90
11087;DHT22;5597;47.588;9.642;2023-02-07T14:12:36;6.60;99.90
11087;DHT22;5597;47.588;9.642;2023-02-07T14:18:00;6.40;99.90
11087;DHT22;5597;47.588;9.642;2023-02-07T14:23:14;6.00;99.90
11087;DHT22;5597;47.588;9.642;2023-02-07T14:25:43;5.80;99.90
11087;DHT22;5597;47.588;9.642;2023-02-07T14:28:32;5.70;99.90
11087;DHT22;5597;47.588;9.642;2023-02-07T14:31:06;5.60;99.90
11087;DHT22;5597;47.588;9.642;2023-02-07T14:33:34;5.50;99.90
11087;DHT22;5597;47.588;9.642;2023-02-07T14:38:40;5.20;99.90
11087;DHT22;5597;47.588;9.642;2023-02-07T14:41:16;5.00;99.90
11087;DHT22;5597;47.588;9.642;2023-02-07T14:43:53;4.90;99.90
11087;DHT22;5597;47.588;9.642;2023-02-07T14:46:34;4.80;99.90
11087;DHT22;5597;47.588;9.642;2023-02-07T14:49:20;4.60;99.90
11087;DHT22;5597;47.588;9.642;2023-02-07T14:51:58;4.60;99.90
11087;DHT22;5597;47.588;9.642;2023-02-07T14:54:44;4.50;99.90
11087;DHT22;5597;47.588;9.642;2023-02-07T14:57:57;4.50;99.90
11087;DHT22;5597;47.588;9.642;2023-02-07T15:00:37;4.40;99.90
11087;DHT22;5597;47.588;9.642;2023-02-07T15:03:13;4.30;99.90
11087;DHT22;5597;47.588;9.642;2023-02-07T15:05:50;4.20;99.90
11087;DHT22;5597;47.588;9.642;2023-02-07T15:08:18;4.10;99.90
11087;DHT22;5597;47.588;9.642;2023-02-07T15:13:45;3.90;99.90
11087;DHT22;5597;47.588;9.642;2023-02-07T15:16:15;3.80;99.90
11087;DHT22;5597;47.588;9.642;2023-02-07T15:18:49;3.80;99.90
11087;DHT22;5597;47.588;9.642;2023-02-07T15:21:19;3.70;99.90
11087;DHT22;5597;47.588;9.642;2023-02-07T15:24:13;3.60;99.90
11087;DHT22;5597;47.588;9.642;2023-02-07T15:26:40;3.50;99.90
11087;DHT22;5597;47.588;9.642;2023-02-07T15:29:24;3.50;99.90
11087;DHT22;5597;47.588;9.642;2023-02-07T15:31:49;3.40;99.90
11087;DHT22;5597;47.588;9.642;2023-02-07T15:34:19;3.30;99.90
11087;DHT22;5597;47.588;9.642;2023-02-07T15:36:47;3.20;99.90
11087;DHT22;5597;47.588;9.642;2023-02-07T15:39:24;3.20;99.90
11087;DHT22;5597;47.588;9.642;2023-02-07T15:41:53;3.00;99.90
11087;DHT22;5597;47.588;9.642;2023-02-07T15:47:04;2.80;99.90
11087;DHT22;5597;47.588;9.642;2023-02-07T15:49:35;2.80;99.90
11087;DHT22;5597;47.588;9.642;2023-02-07T15:52:18;2.70;99.90
11087;DHT22;5597;47.588;9.642;2023-02-07T15:54:48;2.70;99.90
11087;DHT22;5597;47.588;9.642;2023-02-07T15:59:48;2.60;99.90
11087;DHT22;5597;47.588;9.642;2023-02-07T16:02:27;2.50;99.90
11087;DHT22;5597;47.588;9.642;2023-02-07T16:04:56;2.50;99.90
11087;DHT22;5597;47.588;9.642;2023-02-07T16:07:23;2.40;99.90
11087;DHT22;5597;47.588;9.642;2023-02-07T16:09:49;2.30;99.90
11087;DHT22;5597;47.588;9.642;2023-02-07T16:14:57;2.10;99.90
11087;DHT22;5597;47.588;9.642;2023-02-07T16:17:24;2.10;99.90
11087;DHT22;5597;47.588;9.642;2023-02-07T16:19:50;2.00;99.90
11087;DHT22;5597;47.588;9.642;2023-02-07T16:22:19;2.00;99.90
11087;DHT22;5597;47.588;9.642;2023-02-07T16:24:46;1.90;99.90
11087;DHT22;5597;47.588;9.642;2023-02-07T16:27:17;1.90;99.90
11087;DHT22;5597;47.588;9.642;2023-02-07T16:29:43;1.80;99.90
11087;DHT22;5597;47.588;9.642;2023-02-07T16:32:13;1.70;99.90
11087;DHT22;5597;47.588;9.642;2023-02-07T16:34:39;1.70;99.90
11087;DHT22;5597;47.588;9.642;2023-02-07T16:37:06;1.60;99.90
11087;DHT22;5597;47.588;9.642;2023-02-07T16:39:31;1.50;99.90
11087;DHT22;5597;47.588;9.642;2023-02-07T16:42:03;1.50;99.90
11087;DHT22;5597;47.588;9.642;2023-02-07T16:44:32;1.40;99.90
11087;DHT22;5597;47.588;9.642;2023-02-07T16:46:58;1.30;99.90
11087;DHT22;5597;47.588;9.642;2023-02-07T16:49:25;1.30;99.90
11087;DHT22;5597;47.588;9.642;2023-02-07T16:51:51;1.20;99.90
11087;DHT22;5597;47.588;9.642;2023-02-07T16:54:17;1.20;99.90
11087;DHT22;5597;47.588;9.642;2023-02-07T16:56:44;1.10;99.90
11087;DHT22;5597;47.588;9.642;2023-02-07T16:59:15;1.00;99.90
11087;DHT22;5597;47.588;9.642;2023-02-07T17:01:43;1.00;99.90
11087;DHT22;5597;47.588;9.642;2023-02-07T17:04:10;0.90;99.90
11087;DHT22;5597;47.588;9.642;2023-02-07T17:06:37;0.90;99.90
11087;DHT22;5597;47.588;9.642;2023-02-07T17:09:02;0.80;99.90
11087;DHT22;5597;47.588;9.642;2023-02-07T17:11:28;0.80;99.90
11087;DHT22;5597;47.588;9.642;2023-02-07T17:13:57;0.80;99.90
11087;DHT22;5597;47.588;9.642;2023-02-07T17:16:24;0.70;99.90
11087;DHT22;5597;47.588;9.642;2023-02-07T17:18:51;0.70;99.90
11087;DHT22;5597;47.588;9.642;2023-02-07T17:21:17;0.70;99.90
11087;DHT22;5597;47.588;9.642;2023-02-07T17:23:44;0.60;99.90
11087;DHT22;5597;47.588;9.642;2023-02-07T17:26:25;0.60;99.90
11087;DHT22;5597;47.588;9.642;2023-02-07T17:28:51;0.50;99.90
11087;DHT22;5597;47.588;9.642;2023-02-07T17:31:17;0.50;99.90
11087;DHT22;5597;47.588;9.642;2023-02-07T17:33:43;0.50;99.90
11087;DHT22;5597;47.588;9.642;2023-02-07T17:36:13;0.50;99.90
11087;DHT22;5597;47.588;9.642;2023-02-07T17:38:39;0.40;99.90
11087;DHT22;5597;47.588;9.642;2023-02-07T17:41:05;0.40;99.90
11087;DHT22;5597;47.588;9.642;2023-02-07T17:43:30;0.40;99.90
11087;DHT22;5597;47.588;9.642;2023-02-07T17:45:57;0.40;99.90
11087;DHT22;5597;47.588;9.642;2023-02-07T17:48:23;0.40;99.90
11087;DHT22;5597;47.588;9.642;2023-02-07T17:50:49;0.40;99.90